Terminal Aerodrome Forecast
Issued by NWS Pueblo, CO

Home | Current Version | Previous Version | Text Only | Print | Product List | Glossary On
Versions: 1 2 3 4 5 6 7 8 9 10 11 12 13 14 15 16 17 18 19 20
000
FTUS45 KPUB 170523
TAFCOS
TAF
KCOS 170523Z 1706/1806 03006KT P6SM SCT070
     FM171700 17008KT P6SM SCT070 SCT120
     FM180300 03007KT P6SM SCT070 SCT120=

USA.gov is the U.S. government's official web portal to all federal, state and local government web resources and services.